PWSweather.com
Personal Weather Stations
Station Observations
KKYCRABO2
Cedar Creek Lake 840 Ky. Hwy. 39 N, Crab Orchard, KY 40419

Cedar Creek Lake 840 Ky. Hwy. 39 NCrab Orchard, KY 40419

Lat: 37.4736234544238, Lon: -84.5120286941528

Elevation: 952

Station Type: TYCON Power TP1080WC Pro

http://kbweather.net/

High Low Average
Temperature 45.9°F7.7°F 45.9°F7.7°F 45.9°F7.7°F
Dew Point 28.4°F-2.0°F 28.4°F-2.0°F 28.4°F-2.0°F
Winds 8.7 mph NW14.0 mph NW Calm Calm 2.2 mph 3.5 mph
Wind Gusts 17.2 mph27.7 mph -- 4.7 mph7.6 mph
Humidity 50% 50% 50%
Pressure 30.15 in1021.00 in 29.97 in1014.90 in -
Precipitation 0.00 in0.00 in - -
Hour Temp Dew Point Humidity Winds Wind Gusts Pressure Precip Precip Rate Daily Precip Total
12:00 AM 45.9°F7.7°C 28.4°F-2.0°C 50% 3.6 mph WSW5.8 kmh WSW 6.9 mph11.1 kmh 30.03 in1016.9 mb 0.00 in0.0 mm 0.00 in0.0 mm 0.00 in0.0 mm
12:05 AM 45.9°F7.7°C 28.4°F-2.0°C 50% 4.3 mph WSW6.9 kmh WSW 6.9 mph11.1 kmh 30.00 in1015.9 mb 0.00 in0.0 mm 0.00 in0.0 mm 0.00 in0.0 mm
12:10 AM 45.9°F7.7°C 28.4°F-2.0°C 50% 3.6 mph W5.8 kmh W 5.4 mph8.7 kmh 30.00 in1015.9 mb 0.00 in0.0 mm 0.00 in0.0 mm 0.00 in0.0 mm
12:15 AM 45.9°F7.7°C 28.4°F-2.0°C 50% 6.0 mph W9.7 kmh W 8.5 mph13.7 kmh 30.00 in1015.9 mb 0.00 in0.0 mm 0.00 in0.0 mm 0.00 in0.0 mm
12:20 AM 45.9°F7.7°C 28.4°F-2.0°C 50% 2.9 mph W4.7 kmh W 8.5 mph13.7 kmh 30.00 in1015.9 mb 0.00 in0.0 mm 0.00 in0.0 mm 0.00 in0.0 mm
12:25 AM 45.9°F7.7°C 28.4°F-2.0°C 50% 3.8 mph W6.1 kmh W 6.0 mph9.7 kmh 30.00 in1015.9 mb 0.00 in0.0 mm 0.00 in0.0 mm 0.00 in0.0 mm
12:30 AM 45.9°F7.7°C 28.4°F-2.0°C 50% 4.5 mph W7.2 kmh W 8.7 mph14.0 kmh 30.00 in1015.9 mb 0.00 in0.0 mm 0.00 in0.0 mm 0.00 in0.0 mm
12:35 AM 45.9°F7.7°C 28.4°F-2.0°C 50% 5.6 mph W9.0 kmh W 8.7 mph14.0 kmh 30.00 in1015.9 mb 0.00 in0.0 mm 0.00 in0.0 mm 0.00 in0.0 mm
12:40 AM 45.9°F7.7°C 28.4°F-2.0°C 50% 4.9 mph W7.9 kmh W 8.7 mph14.0 kmh 30.00 in1015.9 mb 0.00 in0.0 mm 0.00 in0.0 mm 0.00 in0.0 mm
12:45 AM 45.9°F7.7°C 28.4°F-2.0°C 50% 4.9 mph W7.9 kmh W 12.3 mph19.8 kmh 30.00 in1015.9 mb 0.00 in0.0 mm 0.00 in0.0 mm 0.00 in0.0 mm
12:50 AM 45.9°F7.7°C 28.4°F-2.0°C 50% 6.7 mph WNW10.8 kmh WNW 12.3 mph19.8 kmh 30.00 in1015.9 mb 0.00 in0.0 mm 0.00 in0.0 mm 0.00 in0.0 mm
12:55 AM 45.9°F7.7°C 28.4°F-2.0°C 50% 6.3 mph WNW10.1 kmh WNW 11.0 mph17.7 kmh 30.00 in1015.9 mb 0.00 in0.0 mm 0.00 in0.0 mm 0.00 in0.0 mm
01:00 AM 45.9°F7.7°C 28.4°F-2.0°C 50% 7.2 mph W11.6 kmh W 9.6 mph15.4 kmh 30.00 in1015.9 mb 0.00 in0.0 mm 0.00 in0.0 mm 0.00 in0.0 mm
01:05 AM 45.9°F7.7°C 28.4°F-2.0°C 50% 6.5 mph W10.5 kmh W 8.7 mph14.0 kmh 30.03 in1016.9 mb 0.00 in0.0 mm 0.00 in0.0 mm 0.00 in0.0 mm
01:10 AM 45.9°F7.7°C 28.4°F-2.0°C 50% 3.1 mph W5.0 kmh W 7.8 mph12.6 kmh 30.03 in1016.9 mb 0.00 in0.0 mm 0.00 in0.0 mm 0.00 in0.0 mm
01:15 AM 45.9°F7.7°C 28.4°F-2.0°C 50% 3.6 mph W5.8 kmh W 7.4 mph11.9 kmh 30.03 in1016.9 mb 0.00 in0.0 mm 0.00 in0.0 mm 0.00 in0.0 mm
01:20 AM 45.9°F7.7°C 28.4°F-2.0°C 50% 3.8 mph W6.1 kmh W 9.8 mph15.8 kmh 30.03 in1016.9 mb 0.00 in0.0 mm 0.00 in0.0 mm 0.00 in0.0 mm
01:25 AM 45.9°F7.7°C 28.4°F-2.0°C 50% 6.3 mph W10.1 kmh W 9.8 mph15.8 kmh 30.03 in1016.9 mb 0.00 in0.0 mm 0.00 in0.0 mm 0.00 in0.0 mm
01:30 AM 45.9°F7.7°C 28.4°F-2.0°C 50% 4.3 mph W6.9 kmh W 8.1 mph13.0 kmh 30.03 in1016.9 mb 0.00 in0.0 mm 0.00 in0.0 mm 0.00 in0.0 mm
01:35 AM 45.9°F7.7°C 28.4°F-2.0°C 50% 4.3 mph W6.9 kmh W 8.1 mph13.0 kmh 30.03 in1016.9 mb 0.00 in0.0 mm 0.00 in0.0 mm 0.00 in0.0 mm
01:40 AM 45.9°F7.7°C 28.4°F-2.0°C 50% 4.7 mph W7.6 kmh W 7.8 mph12.6 kmh 30.03 in1016.9 mb 0.00 in0.0 mm 0.00 in0.0 mm 0.00 in0.0 mm
01:45 AM 45.9°F7.7°C 28.4°F-2.0°C 50% 4.3 mph W6.9 kmh W 8.7 mph14.0 kmh 30.03 in1016.9 mb 0.00 in0.0 mm 0.00 in0.0 mm 0.00 in0.0 mm
01:50 AM 45.9°F7.7°C 28.4°F-2.0°C 50% 6.9 mph W11.1 kmh W 10.3 mph16.6 kmh 30.03 in1016.9 mb 0.00 in0.0 mm 0.00 in0.0 mm 0.00 in0.0 mm
01:55 AM 45.9°F7.7°C 28.4°F-2.0°C 50% 3.8 mph WNW6.1 kmh WNW 10.3 mph16.6 kmh 30.03 in1016.9 mb 0.00 in0.0 mm 0.00 in0.0 mm 0.00 in0.0 mm
02:00 AM 45.9°F7.7°C 28.4°F-2.0°C 50% 4.9 mph W7.9 kmh W 7.8 mph12.6 kmh 30.03 in1016.9 mb 0.00 in0.0 mm 0.00 in0.0 mm 0.00 in0.0 mm
02:05 AM 45.9°F7.7°C 28.4°F-2.0°C 50% 2.9 mph W4.7 kmh W 7.8 mph12.6 kmh 30.03 in1016.9 mb 0.00 in0.0 mm 0.00 in0.0 mm 0.00 in0.0 mm
02:10 AM 45.9°F7.7°C 28.4°F-2.0°C 50% 3.6 mph W5.8 kmh W 5.6 mph9.0 kmh 30.03 in1016.9 mb 0.00 in0.0 mm 0.00 in0.0 mm 0.00 in0.0 mm
02:15 AM 45.9°F7.7°C 28.4°F-2.0°C 50% 4.3 mph WNW6.9 kmh WNW 6.5 mph10.5 kmh 30.03 in1016.9 mb 0.00 in0.0 mm 0.00 in0.0 mm 0.00 in0.0 mm
02:20 AM 45.9°F7.7°C 28.4°F-2.0°C 50% 2.2 mph W3.5 kmh W 6.5 mph10.5 kmh 30.03 in1016.9 mb 0.00 in0.0 mm 0.00 in0.0 mm 0.00 in0.0 mm
02:25 AM 45.9°F7.7°C 28.4°F-2.0°C 50% 2.2 mph W3.5 kmh W 5.4 mph8.7 kmh 30.03 in1016.9 mb 0.00 in0.0 mm 0.00 in0.0 mm 0.00 in0.0 mm
02:30 AM 45.9°F7.7°C 28.4°F-2.0°C 50% 4.0 mph W6.4 kmh W 5.4 mph8.7 kmh 30.03 in1016.9 mb 0.00 in0.0 mm 0.00 in0.0 mm 0.00 in0.0 mm
02:35 AM 45.9°F7.7°C 28.4°F-2.0°C 50% 3.4 mph W5.5 kmh W 8.1 mph13.0 kmh 30.03 in1016.9 mb 0.00 in0.0 mm 0.00 in0.0 mm 0.00 in0.0 mm
02:40 AM 45.9°F7.7°C 28.4°F-2.0°C 50% 4.0 mph W6.4 kmh W 8.1 mph13.0 kmh 30.03 in1016.9 mb 0.00 in0.0 mm 0.00 in0.0 mm 0.00 in0.0 mm
02:45 AM 45.9°F7.7°C 28.4°F-2.0°C 50% 4.3 mph WNW6.9 kmh WNW 8.1 mph13.0 kmh 30.03 in1016.9 mb 0.00 in0.0 mm 0.00 in0.0 mm 0.00 in0.0 mm
02:50 AM 45.9°F7.7°C 28.4°F-2.0°C 50% 4.7 mph WNW7.6 kmh WNW 8.1 mph13.0 kmh 30.03 in1016.9 mb 0.00 in0.0 mm 0.00 in0.0 mm 0.00 in0.0 mm
02:55 AM 45.9°F7.7°C 28.4°F-2.0°C 50% 4.9 mph WNW7.9 kmh WNW 8.7 mph14.0 kmh 30.03 in1016.9 mb 0.00 in0.0 mm 0.00 in0.0 mm 0.00 in0.0 mm
03:00 AM 45.9°F7.7°C 28.4°F-2.0°C 50% 3.8 mph W6.1 kmh W 8.7 mph14.0 kmh 30.03 in1016.9 mb 0.00 in0.0 mm 0.00 in0.0 mm 0.00 in0.0 mm
03:05 AM 45.9°F7.7°C 28.4°F-2.0°C 50% 6.7 mph W10.8 kmh W 10.5 mph16.9 kmh 30.03 in1016.9 mb 0.00 in0.0 mm 0.00 in0.0 mm 0.00 in0.0 mm
03:10 AM 45.9°F7.7°C 28.4°F-2.0°C 50% 5.4 mph W8.7 kmh W 10.5 mph16.9 kmh 30.03 in1016.9 mb 0.00 in0.0 mm 0.00 in0.0 mm 0.00 in0.0 mm
03:15 AM 45.9°F7.7°C 28.4°F-2.0°C 50% 2.0 mph W3.2 kmh W 7.6 mph12.2 kmh 30.03 in1016.9 mb 0.00 in0.0 mm 0.00 in0.0 mm 0.00 in0.0 mm
03:20 AM 45.9°F7.7°C 28.4°F-2.0°C 50% 3.1 mph W5.0 kmh W 7.6 mph12.2 kmh 30.00 in1015.9 mb 0.00 in0.0 mm 0.00 in0.0 mm 0.00 in0.0 mm
03:25 AM 45.9°F7.7°C 28.4°F-2.0°C 50% 3.1 mph W5.0 kmh W 6.3 mph10.1 kmh 30.00 in1015.9 mb 0.00 in0.0 mm 0.00 in0.0 mm 0.00 in0.0 mm
03:30 AM 45.9°F7.7°C 28.4°F-2.0°C 50% 3.1 mph WNW5.0 kmh WNW 6.0 mph9.7 kmh 30.00 in1015.9 mb 0.00 in0.0 mm 0.00 in0.0 mm 0.00 in0.0 mm
03:35 AM 45.9°F7.7°C 28.4°F-2.0°C 50% 3.1 mph W5.0 kmh W 6.0 mph9.7 kmh 30.00 in1015.9 mb 0.00 in0.0 mm 0.00 in0.0 mm 0.00 in0.0 mm
03:40 AM 45.9°F7.7°C 28.4°F-2.0°C 50% 4.0 mph W6.4 kmh W 6.0 mph9.7 kmh 30.00 in1015.9 mb 0.00 in0.0 mm 0.00 in0.0 mm 0.00 in0.0 mm
03:45 AM 45.9°F7.7°C 28.4°F-2.0°C 50% 2.7 mph W4.3 kmh W 6.0 mph9.7 kmh 30.00 in1015.9 mb 0.00 in0.0 mm 0.00 in0.0 mm 0.00 in0.0 mm
03:50 AM 45.9°F7.7°C 28.4°F-2.0°C 50% 3.8 mph W6.1 kmh W 5.6 mph9.0 kmh 30.00 in1015.9 mb 0.00 in0.0 mm 0.00 in0.0 mm 0.00 in0.0 mm
03:55 AM 45.9°F7.7°C 28.4°F-2.0°C 50% 3.8 mph W6.1 kmh W 6.0 mph9.7 kmh 30.00 in1015.9 mb 0.00 in0.0 mm 0.00 in0.0 mm 0.00 in0.0 mm
04:00 AM 45.9°F7.7°C 28.4°F-2.0°C 50% 2.7 mph W4.3 kmh W 6.0 mph9.7 kmh 30.00 in1015.9 mb 0.00 in0.0 mm 0.00 in0.0 mm 0.00 in0.0 mm
04:05 AM 45.9°F7.7°C 28.4°F-2.0°C 50% 2.9 mph W4.7 kmh W 4.9 mph7.9 kmh 29.97 in1014.9 mb 0.00 in0.0 mm 0.00 in0.0 mm 0.00 in0.0 mm
04:10 AM 45.9°F7.7°C 28.4°F-2.0°C 50% 3.8 mph W6.1 kmh W 7.2 mph11.6 kmh 29.97 in1014.9 mb 0.00 in0.0 mm 0.00 in0.0 mm 0.00 in0.0 mm
04:15 AM 45.9°F7.7°C 28.4°F-2.0°C 50% 3.8 mph W6.1 kmh W 7.2 mph11.6 kmh 29.97 in1014.9 mb 0.00 in0.0 mm 0.00 in0.0 mm 0.00 in0.0 mm
04:20 AM 45.9°F7.7°C 28.4°F-2.0°C 50% 4.0 mph W6.4 kmh W 7.2 mph11.6 kmh 30.03 in1016.9 mb 0.00 in0.0 mm 0.00 in0.0 mm 0.00 in0.0 mm
04:25 AM 45.9°F7.7°C 28.4°F-2.0°C 50% 3.4 mph W5.5 kmh W 5.6 mph9.0 kmh 30.03 in1016.9 mb 0.00 in0.0 mm 0.00 in0.0 mm 0.00 in0.0 mm
04:30 AM 45.9°F7.7°C 28.4°F-2.0°C 50% 3.4 mph W5.5 kmh W 6.0 mph9.7 kmh 30.03 in1016.9 mb 0.00 in0.0 mm 0.00 in0.0 mm 0.00 in0.0 mm
04:35 AM 45.9°F7.7°C 28.4°F-2.0°C 50% 3.4 mph WNW5.5 kmh WNW 6.0 mph9.7 kmh 30.00 in1015.9 mb 0.00 in0.0 mm 0.00 in0.0 mm 0.00 in0.0 mm
04:40 AM 45.9°F7.7°C 28.4°F-2.0°C 50% 3.1 mph W5.0 kmh W 4.5 mph7.2 kmh 30.00 in1015.9 mb 0.00 in0.0 mm 0.00 in0.0 mm 0.00 in0.0 mm
04:45 AM 45.9°F7.7°C 28.4°F-2.0°C 50% 3.1 mph WNW5.0 kmh WNW 6.5 mph10.5 kmh 30.00 in1015.9 mb 0.00 in0.0 mm 0.00 in0.0 mm 0.00 in0.0 mm
04:50 AM 45.9°F7.7°C 28.4°F-2.0°C 50% 1.6 mph WNW2.6 kmh WNW 6.5 mph10.5 kmh 30.00 in1015.9 mb 0.00 in0.0 mm 0.00 in0.0 mm 0.00 in0.0 mm
04:55 AM 45.9°F7.7°C 28.4°F-2.0°C 50% 2.7 mph W4.3 kmh W 6.3 mph10.1 kmh 30.00 in1015.9 mb 0.00 in0.0 mm 0.00 in0.0 mm 0.00 in0.0 mm
05:00 AM 45.9°F7.7°C 28.4°F-2.0°C 50% 2.5 mph W4.0 kmh W 6.3 mph10.1 kmh 30.00 in1015.9 mb 0.00 in0.0 mm 0.00 in0.0 mm 0.00 in0.0 mm
05:05 AM 45.9°F7.7°C 28.4°F-2.0°C 50% 4.0 mph WNW6.4 kmh WNW 4.9 mph7.9 kmh 30.00 in1015.9 mb 0.00 in0.0 mm 0.00 in0.0 mm 0.00 in0.0 mm
05:10 AM 45.9°F7.7°C 28.4°F-2.0°C 50% 3.6 mph WNW5.8 kmh WNW 5.8 mph9.3 kmh 30.00 in1015.9 mb 0.00 in0.0 mm 0.00 in0.0 mm 0.00 in0.0 mm
05:15 AM 45.9°F7.7°C 28.4°F-2.0°C 50% 2.5 mph WNW4.0 kmh WNW 6.0 mph9.7 kmh 30.00 in1015.9 mb 0.00 in0.0 mm 0.00 in0.0 mm 0.00 in0.0 mm
05:20 AM 45.9°F7.7°C 28.4°F-2.0°C 50% 2.9 mph WNW4.7 kmh WNW 6.0 mph9.7 kmh 29.97 in1014.9 mb 0.00 in0.0 mm 0.00 in0.0 mm 0.00 in0.0 mm
05:25 AM 45.9°F7.7°C 28.4°F-2.0°C 50% 2.2 mph WNW3.5 kmh WNW 5.8 mph9.3 kmh 29.97 in1014.9 mb 0.00 in0.0 mm 0.00 in0.0 mm 0.00 in0.0 mm
05:30 AM 45.9°F7.7°C 28.4°F-2.0°C 50% 4.3 mph WNW6.9 kmh WNW 5.8 mph9.3 kmh 29.97 in1014.9 mb 0.00 in0.0 mm 0.00 in0.0 mm 0.00 in0.0 mm
05:35 AM 45.9°F7.7°C 28.4°F-2.0°C 50% 4.3 mph WNW6.9 kmh WNW 5.8 mph9.3 kmh 30.00 in1015.9 mb 0.00 in0.0 mm 0.00 in0.0 mm 0.00 in0.0 mm
05:40 AM 45.9°F7.7°C 28.4°F-2.0°C 50% 4.3 mph WNW6.9 kmh WNW 5.8 mph9.3 kmh 30.00 in1015.9 mb 0.00 in0.0 mm 0.00 in0.0 mm 0.00 in0.0 mm
05:45 AM 45.9°F7.7°C 28.4°F-2.0°C 50% 1.6 mph WNW2.6 kmh WNW 5.6 mph9.0 kmh 30.00 in1015.9 mb 0.00 in0.0 mm 0.00 in0.0 mm 0.00 in0.0 mm
05:50 AM 45.9°F7.7°C 28.4°F-2.0°C 50% 4.3 mph WNW6.9 kmh WNW 6.3 mph10.1 kmh 29.97 in1014.9 mb 0.00 in0.0 mm 0.00 in0.0 mm 0.00 in0.0 mm
05:55 AM 45.9°F7.7°C 28.4°F-2.0°C 50% 3.4 mph WNW5.5 kmh WNW 6.3 mph10.1 kmh 29.97 in1014.9 mb 0.00 in0.0 mm 0.00 in0.0 mm 0.00 in0.0 mm
06:00 AM 45.9°F7.7°C 28.4°F-2.0°C 50% 3.8 mph WNW6.1 kmh WNW 6.0 mph9.7 kmh 29.97 in1014.9 mb 0.00 in0.0 mm 0.00 in0.0 mm 0.00 in0.0 mm
06:05 AM 45.9°F7.7°C 28.4°F-2.0°C 50% 2.7 mph WNW4.3 kmh WNW 7.6 mph12.2 kmh 30.00 in1015.9 mb 0.00 in0.0 mm 0.00 in0.0 mm 0.00 in0.0 mm
06:10 AM 45.9°F7.7°C 28.4°F-2.0°C 50% 2.9 mph WNW4.7 kmh WNW 7.6 mph12.2 kmh 30.00 in1015.9 mb 0.00 in0.0 mm 0.00 in0.0 mm 0.00 in0.0 mm
06:15 AM 45.9°F7.7°C 28.4°F-2.0°C 50% 2.7 mph W4.3 kmh W 5.8 mph9.3 kmh 30.00 in1015.9 mb 0.00 in0.0 mm 0.00 in0.0 mm 0.00 in0.0 mm
06:20 AM 45.9°F7.7°C 28.4°F-2.0°C 50% 2.5 mph W4.0 kmh W 5.8 mph9.3 kmh 30.00 in1015.9 mb 0.00 in0.0 mm 0.00 in0.0 mm 0.00 in0.0 mm
06:25 AM 45.9°F7.7°C 28.4°F-2.0°C 50% 2.9 mph WNW4.7 kmh WNW 4.7 mph7.6 kmh 30.00 in1015.9 mb 0.00 in0.0 mm 0.00 in0.0 mm 0.00 in0.0 mm
06:30 AM 45.9°F7.7°C 28.4°F-2.0°C 50% 2.5 mph WNW4.0 kmh WNW 4.7 mph7.6 kmh 30.00 in1015.9 mb 0.00 in0.0 mm 0.00 in0.0 mm 0.00 in0.0 mm
06:35 AM 45.9°F7.7°C 28.4°F-2.0°C 50% 1.6 mph WNW2.6 kmh WNW 4.3 mph6.9 kmh 30.03 in1016.9 mb 0.00 in0.0 mm 0.00 in0.0 mm 0.00 in0.0 mm
06:40 AM 45.9°F7.7°C 28.4°F-2.0°C 50% 2.0 mph WNW3.2 kmh WNW 4.0 mph6.4 kmh 30.03 in1016.9 mb 0.00 in0.0 mm 0.00 in0.0 mm 0.00 in0.0 mm
06:45 AM 45.9°F7.7°C 28.4°F-2.0°C 50% 3.1 mph WNW5.0 kmh WNW 4.7 mph7.6 kmh 30.03 in1016.9 mb 0.00 in0.0 mm 0.00 in0.0 mm 0.00 in0.0 mm
06:50 AM 45.9°F7.7°C 28.4°F-2.0°C 50% 1.3 mph WNW2.1 kmh WNW 4.7 mph7.6 kmh 30.03 in1016.9 mb 0.00 in0.0 mm 0.00 in0.0 mm 0.00 in0.0 mm
06:55 AM 45.9°F7.7°C 28.4°F-2.0°C 50% 2.0 mph WNW3.2 kmh WNW 3.4 mph5.5 kmh 30.03 in1016.9 mb 0.00 in0.0 mm 0.00 in0.0 mm 0.00 in0.0 mm
07:00 AM 45.9°F7.7°C 28.4°F-2.0°C 50% 2.9 mph WNW4.7 kmh WNW 4.0 mph6.4 kmh 30.03 in1016.9 mb 0.00 in0.0 mm 0.00 in0.0 mm 0.00 in0.0 mm
07:05 AM 45.9°F7.7°C 28.4°F-2.0°C 50% 2.5 mph WNW4.0 kmh WNW 4.3 mph6.9 kmh 30.03 in1016.9 mb 0.00 in0.0 mm 0.00 in0.0 mm 0.00 in0.0 mm
07:10 AM 45.9°F7.7°C 28.4°F-2.0°C 50% 1.1 mph NW1.8 kmh NW 6.0 mph9.7 kmh 30.03 in1016.9 mb 0.00 in0.0 mm 0.00 in0.0 mm 0.00 in0.0 mm
07:15 AM 45.9°F7.7°C 28.4°F-2.0°C 50% 0.9 mph NW1.4 kmh NW 6.0 mph9.7 kmh 30.03 in1016.9 mb 0.00 in0.0 mm 0.00 in0.0 mm 0.00 in0.0 mm
07:20 AM 45.9°F7.7°C 28.4°F-2.0°C 50% 2.5 mph WNW4.0 kmh WNW 3.6 mph5.8 kmh 30.06 in1017.9 mb 0.00 in0.0 mm 0.00 in0.0 mm 0.00 in0.0 mm
07:25 AM 45.9°F7.7°C 28.4°F-2.0°C 50% 0.9 mph NW1.4 kmh NW 3.6 mph5.8 kmh 30.06 in1017.9 mb 0.00 in0.0 mm 0.00 in0.0 mm 0.00 in0.0 mm
07:30 AM 45.9°F7.7°C 28.4°F-2.0°C 50% 0.9 mph NNW1.4 kmh NNW 2.5 mph4.0 kmh 30.06 in1017.9 mb 0.00 in0.0 mm 0.00 in0.0 mm 0.00 in0.0 mm
07:35 AM 45.9°F7.7°C 28.4°F-2.0°C 50% Calm Calm 2.0 mph3.2 kmh 30.06 in1017.9 mb 0.00 in0.0 mm 0.00 in0.0 mm 0.00 in0.0 mm
07:40 AM 45.9°F7.7°C 28.4°F-2.0°C 50% Calm Calm 0.9 mph1.4 kmh 30.06 in1017.9 mb 0.00 in0.0 mm 0.00 in0.0 mm 0.00 in0.0 mm
07:45 AM 45.9°F7.7°C 28.4°F-2.0°C 50% Calm Calm -- 30.06 in1017.9 mb 0.00 in0.0 mm 0.00 in0.0 mm 0.00 in0.0 mm
07:50 AM 45.9°F7.7°C 28.4°F-2.0°C 50% Calm Calm -- 30.06 in1017.9 mb 0.00 in0.0 mm 0.00 in0.0 mm 0.00 in0.0 mm
07:55 AM 45.9°F7.7°C 28.4°F-2.0°C 50% Calm Calm -- 30.06 in1017.9 mb 0.00 in0.0 mm 0.00 in0.0 mm 0.00 in0.0 mm
08:00 AM 45.9°F7.7°C 28.4°F-2.0°C 50% Calm Calm -- 30.06 in1017.9 mb 0.00 in0.0 mm 0.00 in0.0 mm 0.00 in0.0 mm
08:05 AM 45.9°F7.7°C 28.4°F-2.0°C 50% Calm Calm 0.9 mph1.4 kmh 30.06 in1017.9 mb 0.00 in0.0 mm 0.00 in0.0 mm 0.00 in0.0 mm
08:10 AM 45.9°F7.7°C 28.4°F-2.0°C 50% Calm Calm 0.9 mph1.4 kmh 30.06 in1017.9 mb 0.00 in0.0 mm 0.00 in0.0 mm 0.00 in0.0 mm
08:15 AM 45.9°F7.7°C 28.4°F-2.0°C 50% Calm Calm -- 30.06 in1017.9 mb 0.00 in0.0 mm 0.00 in0.0 mm 0.00 in0.0 mm
08:20 AM 45.9°F7.7°C 28.4°F-2.0°C 50% Calm Calm -- 30.06 in1017.9 mb 0.00 in0.0 mm 0.00 in0.0 mm 0.00 in0.0 mm
08:25 AM 45.9°F7.7°C 28.4°F-2.0°C 50% 0.9 mph NW1.4 kmh NW 2.2 mph3.5 kmh 30.06 in1017.9 mb 0.00 in0.0 mm 0.00 in0.0 mm 0.00 in0.0 mm
08:30 AM 45.9°F7.7°C 28.4°F-2.0°C 50% Calm Calm 2.2 mph3.5 kmh 30.06 in1017.9 mb 0.00 in0.0 mm 0.00 in0.0 mm 0.00 in0.0 mm
08:35 AM 45.9°F7.7°C 28.4°F-2.0°C 50% 0.9 mph NW1.4 kmh NW 1.6 mph2.6 kmh 30.06 in1017.9 mb 0.00 in0.0 mm 0.00 in0.0 mm 0.00 in0.0 mm
08:40 AM 45.9°F7.7°C 28.4°F-2.0°C 50% 1.1 mph NW1.8 kmh NW 1.6 mph2.6 kmh 30.06 in1017.9 mb 0.00 in0.0 mm 0.00 in0.0 mm 0.00 in0.0 mm
08:45 AM 45.9°F7.7°C 28.4°F-2.0°C 50% Calm Calm 1.3 mph2.1 kmh 30.06 in1017.9 mb 0.00 in0.0 mm 0.00 in0.0 mm 0.00 in0.0 mm
08:50 AM 45.9°F7.7°C 28.4°F-2.0°C 50% 1.1 mph NW1.8 kmh NW 2.0 mph3.2 kmh 30.09 in1019.0 mb 0.00 in0.0 mm 0.00 in0.0 mm 0.00 in0.0 mm
08:55 AM 45.9°F7.7°C 28.4°F-2.0°C 50% 0.9 mph NW1.4 kmh NW 2.5 mph4.0 kmh 30.09 in1019.0 mb 0.00 in0.0 mm 0.00 in0.0 mm 0.00 in0.0 mm
09:00 AM 45.9°F7.7°C 28.4°F-2.0°C 50% Calm Calm 2.5 mph4.0 kmh 30.09 in1019.0 mb 0.00 in0.0 mm 0.00 in0.0 mm 0.00 in0.0 mm
09:05 AM 45.9°F7.7°C 28.4°F-2.0°C 50% Calm Calm 3.8 mph6.1 kmh 30.12 in1020.0 mb 0.00 in0.0 mm 0.00 in0.0 mm 0.00 in0.0 mm
09:10 AM 45.9°F7.7°C 28.4°F-2.0°C 50% 1.1 mph NNW1.8 kmh NNW 3.8 mph6.1 kmh 30.12 in1020.0 mb 0.00 in0.0 mm 0.00 in0.0 mm 0.00 in0.0 mm
09:15 AM 45.9°F7.7°C 28.4°F-2.0°C 50% 0.9 mph NW1.4 kmh NW 3.4 mph5.5 kmh 30.12 in1020.0 mb 0.00 in0.0 mm 0.00 in0.0 mm 0.00 in0.0 mm
09:20 AM 45.9°F7.7°C 28.4°F-2.0°C 50% 1.3 mph NW2.1 kmh NW 2.7 mph4.3 kmh 30.12 in1020.0 mb 0.00 in0.0 mm 0.00 in0.0 mm 0.00 in0.0 mm
09:25 AM 45.9°F7.7°C 28.4°F-2.0°C 50% Calm Calm 2.7 mph4.3 kmh 30.12 in1020.0 mb 0.00 in0.0 mm 0.00 in0.0 mm 0.00 in0.0 mm
09:30 AM 45.9°F7.7°C 28.4°F-2.0°C 50% 2.0 mph NNE3.2 kmh NNE 3.4 mph5.5 kmh 30.12 in1020.0 mb 0.00 in0.0 mm 0.00 in0.0 mm 0.00 in0.0 mm
09:35 AM 45.9°F7.7°C 28.4°F-2.0°C 50% 1.6 mph NNE2.6 kmh NNE 3.4 mph5.5 kmh 30.12 in1020.0 mb 0.00 in0.0 mm 0.00 in0.0 mm 0.00 in0.0 mm
09:40 AM 45.9°F7.7°C 28.4°F-2.0°C 50% 1.3 mph NNW2.1 kmh NNW 3.4 mph5.5 kmh 30.12 in1020.0 mb 0.00 in0.0 mm 0.00 in0.0 mm 0.00 in0.0 mm
09:45 AM 45.9°F7.7°C 28.4°F-2.0°C 50% 4.5 mph N7.2 kmh N 6.3 mph10.1 kmh 30.12 in1020.0 mb 0.00 in0.0 mm 0.00 in0.0 mm 0.00 in0.0 mm
09:50 AM 45.9°F7.7°C 28.4°F-2.0°C 50% 1.1 mph NNE1.8 kmh NNE 6.3 mph10.1 kmh 30.12 in1020.0 mb 0.00 in0.0 mm 0.00 in0.0 mm 0.00 in0.0 mm
09:55 AM 45.9°F7.7°C 28.4°F-2.0°C 50% 1.6 mph N2.6 kmh N 3.8 mph6.1 kmh 30.12 in1020.0 mb 0.00 in0.0 mm 0.00 in0.0 mm 0.00 in0.0 mm
10:00 AM 45.9°F7.7°C 28.4°F-2.0°C 50% 1.1 mph NNW1.8 kmh NNW 3.8 mph6.1 kmh 30.12 in1020.0 mb 0.00 in0.0 mm 0.00 in0.0 mm 0.00 in0.0 mm
10:05 AM 45.9°F7.7°C 28.4°F-2.0°C 50% 1.1 mph NNW1.8 kmh NNW 2.5 mph4.0 kmh 30.12 in1020.0 mb 0.00 in0.0 mm 0.00 in0.0 mm 0.00 in0.0 mm
10:10 AM 45.9°F7.7°C 28.4°F-2.0°C 50% Calm Calm 2.5 mph4.0 kmh 30.12 in1020.0 mb 0.00 in0.0 mm 0.00 in0.0 mm 0.00 in0.0 mm
10:15 AM 45.9°F7.7°C 28.4°F-2.0°C 50% 1.3 mph NW2.1 kmh NW 3.6 mph5.8 kmh 30.12 in1020.0 mb 0.00 in0.0 mm 0.00 in0.0 mm 0.00 in0.0 mm
10:20 AM 45.9°F7.7°C 28.4°F-2.0°C 50% 0.9 mph NW1.4 kmh NW 4.0 mph6.4 kmh 30.12 in1020.0 mb 0.00 in0.0 mm 0.00 in0.0 mm 0.00 in0.0 mm
10:25 AM 45.9°F7.7°C 28.4°F-2.0°C 50% 1.6 mph NW2.6 kmh NW 4.0 mph6.4 kmh 30.12 in1020.0 mb 0.00 in0.0 mm 0.00 in0.0 mm 0.00 in0.0 mm
10:30 AM 45.9°F7.7°C 28.4°F-2.0°C 50% 1.6 mph NNW2.6 kmh NNW 3.1 mph5.0 kmh 30.12 in1020.0 mb 0.00 in0.0 mm 0.00 in0.0 mm 0.00 in0.0 mm
10:35 AM 45.9°F7.7°C 28.4°F-2.0°C 50% 1.1 mph NNW1.8 kmh NNW 3.8 mph6.1 kmh 30.09 in1019.0 mb 0.00 in0.0 mm 0.00 in0.0 mm 0.00 in0.0 mm
10:40 AM 45.9°F7.7°C 28.4°F-2.0°C 50% Calm Calm 3.8 mph6.1 kmh 30.09 in1019.0 mb 0.00 in0.0 mm 0.00 in0.0 mm 0.00 in0.0 mm
10:45 AM 45.9°F7.7°C 28.4°F-2.0°C 50% 2.0 mph NNE3.2 kmh NNE 3.4 mph5.5 kmh 30.09 in1019.0 mb 0.00 in0.0 mm 0.00 in0.0 mm 0.00 in0.0 mm
10:50 AM 45.9°F7.7°C 28.4°F-2.0°C 50% 2.0 mph NNE3.2 kmh NNE 5.8 mph9.3 kmh 30.09 in1019.0 mb 0.00 in0.0 mm 0.00 in0.0 mm 0.00 in0.0 mm
10:55 AM 45.9°F7.7°C 28.4°F-2.0°C 50% 1.6 mph N2.6 kmh N 5.8 mph9.3 kmh 30.09 in1019.0 mb 0.00 in0.0 mm 0.00 in0.0 mm 0.00 in0.0 mm
11:00 AM 45.9°F7.7°C 28.4°F-2.0°C 50% 1.1 mph NNW1.8 kmh NNW 3.4 mph5.5 kmh 30.09 in1019.0 mb 0.00 in0.0 mm 0.00 in0.0 mm 0.00 in0.0 mm
11:05 AM 45.9°F7.7°C 28.4°F-2.0°C 50% 0.9 mph NNW1.4 kmh NNW 3.1 mph5.0 kmh 30.12 in1020.0 mb 0.00 in0.0 mm 0.00 in0.0 mm 0.00 in0.0 mm
11:10 AM 45.9°F7.7°C 28.4°F-2.0°C 50% 1.1 mph NNW1.8 kmh NNW 3.1 mph5.0 kmh 30.12 in1020.0 mb 0.00 in0.0 mm 0.00 in0.0 mm 0.00 in0.0 mm
11:15 AM 45.9°F7.7°C 28.4°F-2.0°C 50% 2.2 mph NW3.5 kmh NW 3.4 mph5.5 kmh 30.12 in1020.0 mb 0.00 in0.0 mm 0.00 in0.0 mm 0.00 in0.0 mm
11:20 AM 45.9°F7.7°C 28.4°F-2.0°C 50% 3.6 mph NW5.8 kmh NW 6.3 mph10.1 kmh 30.15 in1021.0 mb 0.00 in0.0 mm 0.00 in0.0 mm 0.00 in0.0 mm
11:25 AM 45.9°F7.7°C 28.4°F-2.0°C 50% 1.6 mph NNW2.6 kmh NNW 6.3 mph10.1 kmh 30.15 in1021.0 mb 0.00 in0.0 mm 0.00 in0.0 mm 0.00 in0.0 mm
11:30 AM 45.9°F7.7°C 28.4°F-2.0°C 50% 0.9 mph NNW1.4 kmh NNW 2.9 mph4.7 kmh 30.15 in1021.0 mb 0.00 in0.0 mm 0.00 in0.0 mm 0.00 in0.0 mm
11:35 AM 45.9°F7.7°C 28.4°F-2.0°C 50% 1.3 mph NW2.1 kmh NW 2.9 mph4.7 kmh 30.15 in1021.0 mb 0.00 in0.0 mm 0.00 in0.0 mm 0.00 in0.0 mm
11:40 AM 45.9°F7.7°C 28.4°F-2.0°C 50% 2.5 mph NW4.0 kmh NW 3.4 mph5.5 kmh 30.15 in1021.0 mb 0.00 in0.0 mm 0.00 in0.0 mm 0.00 in0.0 mm
11:45 AM 45.9°F7.7°C 28.4°F-2.0°C 50% 3.4 mph NW5.5 kmh NW 8.5 mph13.7 kmh 30.15 in1021.0 mb 0.00 in0.0 mm 0.00 in0.0 mm 0.00 in0.0 mm
11:50 AM 45.9°F7.7°C 28.4°F-2.0°C 50% 1.6 mph NW2.6 kmh NW 8.5 mph13.7 kmh 30.15 in1021.0 mb 0.00 in0.0 mm 0.00 in0.0 mm 0.00 in0.0 mm
11:55 AM 45.9°F7.7°C 28.4°F-2.0°C 50% 2.9 mph NW4.7 kmh NW 4.0 mph6.4 kmh 30.15 in1021.0 mb 0.00 in0.0 mm 0.00 in0.0 mm 0.00 in0.0 mm
12:00 PM 45.9°F7.7°C 28.4°F-2.0°C 50% 2.9 mph NW4.7 kmh NW 4.7 mph7.6 kmh 30.15 in1021.0 mb 0.00 in0.0 mm 0.00 in0.0 mm 0.00 in0.0 mm
12:05 PM 45.9°F7.7°C 28.4°F-2.0°C 50% 2.7 mph NNW4.3 kmh NNW 4.7 mph7.6 kmh 30.15 in1021.0 mb 0.00 in0.0 mm 0.00 in0.0 mm 0.00 in0.0 mm
12:10 PM 45.9°F7.7°C 28.4°F-2.0°C 50% 2.2 mph NW3.5 kmh NW 4.0 mph6.4 kmh 30.15 in1021.0 mb 0.00 in0.0 mm 0.00 in0.0 mm 0.00 in0.0 mm
12:15 PM 45.9°F7.7°C 28.4°F-2.0°C 50% 2.5 mph NW4.0 kmh NW 4.0 mph6.4 kmh 30.15 in1021.0 mb 0.00 in0.0 mm 0.00 in0.0 mm 0.00 in0.0 mm
12:20 PM 45.9°F7.7°C 28.4°F-2.0°C 50% 3.4 mph NW5.5 kmh NW 6.9 mph11.1 kmh 30.15 in1021.0 mb 0.00 in0.0 mm 0.00 in0.0 mm 0.00 in0.0 mm
12:25 PM 45.9°F7.7°C 28.4°F-2.0°C 50% 2.5 mph NW4.0 kmh NW 6.9 mph11.1 kmh 30.15 in1021.0 mb 0.00 in0.0 mm 0.00 in0.0 mm 0.00 in0.0 mm
12:30 PM 45.9°F7.7°C 28.4°F-2.0°C 50% 2.0 mph NW3.2 kmh NW 6.3 mph10.1 kmh 30.15 in1021.0 mb 0.00 in0.0 mm 0.00 in0.0 mm 0.00 in0.0 mm
12:35 PM 45.9°F7.7°C 28.4°F-2.0°C 50% 2.7 mph NW4.3 kmh NW 7.6 mph12.2 kmh 30.15 in1021.0 mb 0.00 in0.0 mm 0.00 in0.0 mm 0.00 in0.0 mm
12:40 PM 45.9°F7.7°C 28.4°F-2.0°C 50% 2.2 mph NNW3.5 kmh NNW 7.6 mph12.2 kmh 30.15 in1021.0 mb 0.00 in0.0 mm 0.00 in0.0 mm 0.00 in0.0 mm
12:45 PM 45.9°F7.7°C 28.4°F-2.0°C 50% 2.7 mph N4.3 kmh N 4.9 mph7.9 kmh 30.15 in1021.0 mb 0.00 in0.0 mm 0.00 in0.0 mm 0.00 in0.0 mm
12:50 PM 45.9°F7.7°C 28.4°F-2.0°C 50% 2.9 mph NNW4.7 kmh NNW 4.9 mph7.9 kmh 30.15 in1021.0 mb 0.00 in0.0 mm 0.00 in0.0 mm 0.00 in0.0 mm
12:55 PM 45.9°F7.7°C 28.4°F-2.0°C 50% 2.7 mph NNW4.3 kmh NNW 4.3 mph6.9 kmh 30.15 in1021.0 mb 0.00 in0.0 mm 0.00 in0.0 mm 0.00 in0.0 mm
01:00 PM 45.9°F7.7°C 28.4°F-2.0°C 50% 2.9 mph NW4.7 kmh NW 4.3 mph6.9 kmh 30.15 in1021.0 mb 0.00 in0.0 mm 0.00 in0.0 mm 0.00 in0.0 mm
01:05 PM 45.9°F7.7°C 28.4°F-2.0°C 50% 3.6 mph NW5.8 kmh NW 6.0 mph9.7 kmh 30.15 in1021.0 mb 0.00 in0.0 mm 0.00 in0.0 mm 0.00 in0.0 mm
01:10 PM 45.9°F7.7°C 28.4°F-2.0°C 50% 2.7 mph NW4.3 kmh NW 6.0 mph9.7 kmh 30.15 in1021.0 mb 0.00 in0.0 mm 0.00 in0.0 mm 0.00 in0.0 mm
01:15 PM 45.9°F7.7°C 28.4°F-2.0°C 50% 2.0 mph NNW3.2 kmh NNW 4.0 mph6.4 kmh 30.15 in1021.0 mb 0.00 in0.0 mm 0.00 in0.0 mm 0.00 in0.0 mm
01:20 PM 45.9°F7.7°C 28.4°F-2.0°C 50% 0.9 mph NW1.4 kmh NW 4.0 mph6.4 kmh 30.12 in1020.0 mb 0.00 in0.0 mm 0.00 in0.0 mm 0.00 in0.0 mm
01:25 PM 45.9°F7.7°C 28.4°F-2.0°C 50% 1.6 mph N2.6 kmh N 3.8 mph6.1 kmh 30.12 in1020.0 mb 0.00 in0.0 mm 0.00 in0.0 mm 0.00 in0.0 mm
01:30 PM 45.9°F7.7°C 28.4°F-2.0°C 50% 2.7 mph N4.3 kmh N 4.3 mph6.9 kmh 30.12 in1020.0 mb 0.00 in0.0 mm 0.00 in0.0 mm 0.00 in0.0 mm
01:35 PM 45.9°F7.7°C 28.4°F-2.0°C 50% 2.9 mph NNW4.7 kmh NNW 4.3 mph6.9 kmh 30.12 in1020.0 mb 0.00 in0.0 mm 0.00 in0.0 mm 0.00 in0.0 mm
01:40 PM 45.9°F7.7°C 28.4°F-2.0°C 50% 2.2 mph NW3.5 kmh NW 4.0 mph6.4 kmh 30.12 in1020.0 mb 0.00 in0.0 mm 0.00 in0.0 mm 0.00 in0.0 mm
01:45 PM 45.9°F7.7°C 28.4°F-2.0°C 50% 2.7 mph NW4.3 kmh NW 3.8 mph6.1 kmh 30.12 in1020.0 mb 0.00 in0.0 mm 0.00 in0.0 mm 0.00 in0.0 mm
01:50 PM 45.9°F7.7°C 28.4°F-2.0°C 50% 2.5 mph NW4.0 kmh NW 3.8 mph6.1 kmh 30.12 in1020.0 mb 0.00 in0.0 mm 0.00 in0.0 mm 0.00 in0.0 mm
01:55 PM 45.9°F7.7°C 28.4°F-2.0°C 50% 2.7 mph NW4.3 kmh NW 3.8 mph6.1 kmh 30.12 in1020.0 mb 0.00 in0.0 mm 0.00 in0.0 mm 0.00 in0.0 mm
02:00 PM 45.9°F7.7°C 28.4°F-2.0°C 50% 3.8 mph NW6.1 kmh NW 5.8 mph9.3 kmh 30.12 in1020.0 mb 0.00 in0.0 mm 0.00 in0.0 mm 0.00 in0.0 mm
02:05 PM 45.9°F7.7°C 28.4°F-2.0°C 50% 2.2 mph NW3.5 kmh NW 5.8 mph9.3 kmh 30.12 in1020.0 mb 0.00 in0.0 mm 0.00 in0.0 mm 0.00 in0.0 mm
02:10 PM 45.9°F7.7°C 28.4°F-2.0°C 50% 2.7 mph N4.3 kmh N 6.5 mph10.5 kmh 30.12 in1020.0 mb 0.00 in0.0 mm 0.00 in0.0 mm 0.00 in0.0 mm
02:15 PM 45.9°F7.7°C 28.4°F-2.0°C 50% 0.9 mph N1.4 kmh N 6.5 mph10.5 kmh 30.12 in1020.0 mb 0.00 in0.0 mm 0.00 in0.0 mm 0.00 in0.0 mm
02:20 PM 45.9°F7.7°C 28.4°F-2.0°C 50% 1.1 mph N1.8 kmh N 4.3 mph6.9 kmh 30.12 in1020.0 mb 0.00 in0.0 mm 0.00 in0.0 mm 0.00 in0.0 mm
02:25 PM 45.9°F7.7°C 28.4°F-2.0°C 50% 3.1 mph NNW5.0 kmh NNW 4.3 mph6.9 kmh 30.12 in1020.0 mb 0.00 in0.0 mm 0.00 in0.0 mm 0.00 in0.0 mm
02:30 PM 45.9°F7.7°C 28.4°F-2.0°C 50% 2.5 mph NW4.0 kmh NW 8.1 mph13.0 kmh 30.12 in1020.0 mb 0.00 in0.0 mm 0.00 in0.0 mm 0.00 in0.0 mm
02:35 PM 45.9°F7.7°C 28.4°F-2.0°C 50% 2.0 mph NW3.2 kmh NW 8.1 mph13.0 kmh 30.09 in1019.0 mb 0.00 in0.0 mm 0.00 in0.0 mm 0.00 in0.0 mm
02:40 PM 45.9°F7.7°C 28.4°F-2.0°C 50% 2.0 mph NW3.2 kmh NW 6.5 mph10.5 kmh 30.09 in1019.0 mb 0.00 in0.0 mm 0.00 in0.0 mm 0.00 in0.0 mm
02:45 PM 45.9°F7.7°C 28.4°F-2.0°C 50% 2.7 mph NNW4.3 kmh NNW 6.5 mph10.5 kmh 30.09 in1019.0 mb 0.00 in0.0 mm 0.00 in0.0 mm 0.00 in0.0 mm
02:50 PM 45.9°F7.7°C 28.4°F-2.0°C 50% 4.0 mph NW6.4 kmh NW 7.8 mph12.6 kmh 30.12 in1020.0 mb 0.00 in0.0 mm 0.00 in0.0 mm 0.00 in0.0 mm
02:55 PM 45.9°F7.7°C 28.4°F-2.0°C 50% 1.6 mph NW2.6 kmh NW 7.8 mph12.6 kmh 30.12 in1020.0 mb 0.00 in0.0 mm 0.00 in0.0 mm 0.00 in0.0 mm
03:00 PM 45.9°F7.7°C 28.4°F-2.0°C 50% 3.6 mph NNW5.8 kmh NNW 6.3 mph10.1 kmh 30.12 in1020.0 mb 0.00 in0.0 mm 0.00 in0.0 mm 0.00 in0.0 mm
03:05 PM 45.9°F7.7°C 28.4°F-2.0°C 50% 2.2 mph NW3.5 kmh NW 6.3 mph10.1 kmh 30.12 in1020.0 mb 0.00 in0.0 mm 0.00 in0.0 mm 0.00 in0.0 mm
03:10 PM 45.9°F7.7°C 28.4°F-2.0°C 50% 8.7 mph NW14.0 kmh NW 13.0 mph20.9 kmh 30.12 in1020.0 mb 0.00 in0.0 mm 0.00 in0.0 mm 0.00 in0.0 mm
03:15 PM 45.9°F7.7°C 28.4°F-2.0°C 50% 8.5 mph WNW13.7 kmh WNW 17.2 mph27.7 kmh 30.12 in1020.0 mb 0.00 in0.0 mm 0.00 in0.0 mm 0.00 in0.0 mm
03:20 PM 45.9°F7.7°C 28.4°F-2.0°C 50% 2.9 mph NW4.7 kmh NW 17.2 mph27.7 kmh 30.12 in1020.0 mb 0.00 in0.0 mm 0.00 in0.0 mm 0.00 in0.0 mm
03:25 PM 45.9°F7.7°C 28.4°F-2.0°C 50% 2.0 mph NW3.2 kmh NW 6.5 mph10.5 kmh 30.12 in1020.0 mb 0.00 in0.0 mm 0.00 in0.0 mm 0.00 in0.0 mm
03:30 PM 45.9°F7.7°C 28.4°F-2.0°C 50% 2.2 mph NW3.5 kmh NW 6.5 mph10.5 kmh 30.12 in1020.0 mb 0.00 in0.0 mm 0.00 in0.0 mm 0.00 in0.0 mm
03:35 PM 45.9°F7.7°C 28.4°F-2.0°C 50% 2.2 mph NNW3.5 kmh NNW 3.8 mph6.1 kmh 30.09 in1019.0 mb 0.00 in0.0 mm 0.00 in0.0 mm 0.00 in0.0 mm
03:40 PM 45.9°F7.7°C 28.4°F-2.0°C 50% 1.1 mph NNW1.8 kmh NNW 3.8 mph6.1 kmh 30.09 in1019.0 mb 0.00 in0.0 mm 0.00 in0.0 mm 0.00 in0.0 mm
03:45 PM 45.9°F7.7°C 28.4°F-2.0°C 50% 1.6 mph N2.6 kmh N 3.8 mph6.1 kmh 30.09 in1019.0 mb 0.00 in0.0 mm 0.00 in0.0 mm 0.00 in0.0 mm
03:50 PM 45.9°F7.7°C 28.4°F-2.0°C 50% 2.5 mph NNW4.0 kmh NNW 4.0 mph6.4 kmh 30.09 in1019.0 mb 0.00 in0.0 mm 0.00 in0.0 mm 0.00 in0.0 mm
03:55 PM 45.9°F7.7°C 28.4°F-2.0°C 50% 2.7 mph NNW4.3 kmh NNW 5.8 mph9.3 kmh 30.09 in1019.0 mb 0.00 in0.0 mm 0.00 in0.0 mm 0.00 in0.0 mm
04:00 PM 45.9°F7.7°C 28.4°F-2.0°C 50% 2.9 mph NNW4.7 kmh NNW 5.8 mph9.3 kmh 30.09 in1019.0 mb 0.00 in0.0 mm 0.00 in0.0 mm 0.00 in0.0 mm
04:05 PM 45.9°F7.7°C 28.4°F-2.0°C 50% 1.6 mph NNW2.6 kmh NNW 4.3 mph6.9 kmh 30.06 in1017.9 mb 0.00 in0.0 mm 0.00 in0.0 mm 0.00 in0.0 mm
04:10 PM 45.9°F7.7°C 28.4°F-2.0°C 50% 2.5 mph NNW4.0 kmh NNW 4.9 mph7.9 kmh 30.06 in1017.9 mb 0.00 in0.0 mm 0.00 in0.0 mm 0.00 in0.0 mm
04:15 PM 45.9°F7.7°C 28.4°F-2.0°C 50% 3.4 mph NW5.5 kmh NW 13.0 mph20.9 kmh 30.06 in1017.9 mb 0.00 in0.0 mm 0.00 in0.0 mm 0.00 in0.0 mm
04:20 PM 45.9°F7.7°C 28.4°F-2.0°C 50% 0.9 mph WNW1.4 kmh WNW 13.0 mph20.9 kmh 30.06 in1017.9 mb 0.00 in0.0 mm 0.00 in0.0 mm 0.00 in0.0 mm
04:25 PM 45.9°F7.7°C 28.4°F-2.0°C 50% 1.6 mph NNW2.6 kmh NNW 3.8 mph6.1 kmh 30.06 in1017.9 mb 0.00 in0.0 mm 0.00 in0.0 mm 0.00 in0.0 mm
04:30 PM 45.9°F7.7°C 28.4°F-2.0°C 50% 2.2 mph NNW3.5 kmh NNW 3.8 mph6.1 kmh 30.06 in1017.9 mb 0.00 in0.0 mm 0.00 in0.0 mm 0.00 in0.0 mm
04:35 PM 45.9°F7.7°C 28.4°F-2.0°C 50% 2.2 mph NW3.5 kmh NW 3.8 mph6.1 kmh 30.03 in1016.9 mb 0.00 in0.0 mm 0.00 in0.0 mm 0.00 in0.0 mm
04:40 PM 45.9°F7.7°C 28.4°F-2.0°C 50% 1.1 mph NW1.8 kmh NW 3.8 mph6.1 kmh 30.03 in1016.9 mb 0.00 in0.0 mm 0.00 in0.0 mm 0.00 in0.0 mm
04:45 PM 45.9°F7.7°C 28.4°F-2.0°C 50% 2.2 mph NW3.5 kmh NW 3.8 mph6.1 kmh 30.03 in1016.9 mb 0.00 in0.0 mm 0.00 in0.0 mm 0.00 in0.0 mm
04:50 PM 45.9°F7.7°C 28.4°F-2.0°C 50% 1.3 mph NW2.1 kmh NW 4.5 mph7.2 kmh 30.06 in1017.9 mb 0.00 in0.0 mm 0.00 in0.0 mm 0.00 in0.0 mm
04:55 PM 45.9°F7.7°C 28.4°F-2.0°C 50% 0.9 mph NW1.4 kmh NW 4.5 mph7.2 kmh 30.06 in1017.9 mb 0.00 in0.0 mm 0.00 in0.0 mm 0.00 in0.0 mm
05:00 PM 45.9°F7.7°C 28.4°F-2.0°C 50% 3.6 mph NW5.8 kmh NW 13.2 mph21.2 kmh 30.06 in1017.9 mb 0.00 in0.0 mm 0.00 in0.0 mm 0.00 in0.0 mm
05:05 PM 45.9°F7.7°C 28.4°F-2.0°C 50% 3.8 mph NW6.1 kmh NW 13.2 mph21.2 kmh 30.09 in1019.0 mb 0.00 in0.0 mm 0.00 in0.0 mm 0.00 in0.0 mm
05:10 PM 45.9°F7.7°C 28.4°F-2.0°C 50% 2.2 mph NW3.5 kmh NW 11.4 mph18.3 kmh 30.09 in1019.0 mb 0.00 in0.0 mm 0.00 in0.0 mm 0.00 in0.0 mm
05:15 PM 45.9°F7.7°C 28.4°F-2.0°C 50% 1.6 mph NW2.6 kmh NW 3.6 mph5.8 kmh 30.09 in1019.0 mb 0.00 in0.0 mm 0.00 in0.0 mm 0.00 in0.0 mm
05:20 PM 45.9°F7.7°C 28.4°F-2.0°C 50% 2.7 mph NW4.3 kmh NW 3.1 mph5.0 kmh 30.06 in1017.9 mb 0.00 in0.0 mm 0.00 in0.0 mm 0.00 in0.0 mm
05:25 PM 45.9°F7.7°C 28.4°F-2.0°C 50% 1.1 mph NW1.8 kmh NW 3.1 mph5.0 kmh 30.06 in1017.9 mb 0.00 in0.0 mm 0.00 in0.0 mm 0.00 in0.0 mm
05:30 PM 45.9°F7.7°C 28.4°F-2.0°C 50% 2.9 mph NW4.7 kmh NW 4.0 mph6.4 kmh 30.06 in1017.9 mb 0.00 in0.0 mm 0.00 in0.0 mm 0.00 in0.0 mm
05:35 PM 45.9°F7.7°C 28.4°F-2.0°C 50% 1.6 mph NNW2.6 kmh NNW 4.0 mph6.4 kmh 30.06 in1017.9 mb 0.00 in0.0 mm 0.00 in0.0 mm 0.00 in0.0 mm
05:40 PM 45.9°F7.7°C 28.4°F-2.0°C 50% 2.9 mph N4.7 kmh N 3.8 mph6.1 kmh 30.06 in1017.9 mb 0.00 in0.0 mm 0.00 in0.0 mm 0.00 in0.0 mm
05:45 PM 45.9°F7.7°C 28.4°F-2.0°C 50% 2.2 mph N3.5 kmh N 5.6 mph9.0 kmh 30.06 in1017.9 mb 0.00 in0.0 mm 0.00 in0.0 mm 0.00 in0.0 mm
05:50 PM 45.9°F7.7°C 28.4°F-2.0°C 50% 2.2 mph NNW3.5 kmh NNW 5.6 mph9.0 kmh 30.06 in1017.9 mb 0.00 in0.0 mm 0.00 in0.0 mm 0.00 in0.0 mm
05:55 PM 45.9°F7.7°C 28.4°F-2.0°C 50% 1.3 mph NNW2.1 kmh NNW 5.4 mph8.7 kmh 30.06 in1017.9 mb 0.00 in0.0 mm 0.00 in0.0 mm 0.00 in0.0 mm
06:00 PM 45.9°F7.7°C 28.4°F-2.0°C 50% 1.3 mph NNW2.1 kmh NNW 5.4 mph8.7 kmh 30.06 in1017.9 mb 0.00 in0.0 mm 0.00 in0.0 mm 0.00 in0.0 mm
06:05 PM 45.9°F7.7°C 28.4°F-2.0°C 50% 2.2 mph NNW3.5 kmh NNW 3.1 mph5.0 kmh 30.06 in1017.9 mb 0.00 in0.0 mm 0.00 in0.0 mm 0.00 in0.0 mm
06:10 PM 45.9°F7.7°C 28.4°F-2.0°C 50% 2.5 mph NNW4.0 kmh NNW 3.1 mph5.0 kmh 30.06 in1017.9 mb 0.00 in0.0 mm 0.00 in0.0 mm 0.00 in0.0 mm
06:15 PM 45.9°F7.7°C 28.4°F-2.0°C 50% 2.0 mph N3.2 kmh N 3.1 mph5.0 kmh 30.06 in1017.9 mb 0.00 in0.0 mm 0.00 in0.0 mm 0.00 in0.0 mm
06:20 PM 45.9°F7.7°C 28.4°F-2.0°C 50% 2.2 mph N3.5 kmh N 2.9 mph4.7 kmh 30.03 in1016.9 mb 0.00 in0.0 mm 0.00 in0.0 mm 0.00 in0.0 mm
06:25 PM 45.9°F7.7°C 28.4°F-2.0°C 50% 2.9 mph NNW4.7 kmh NNW 5.4 mph8.7 kmh 30.03 in1016.9 mb 0.00 in0.0 mm 0.00 in0.0 mm 0.00 in0.0 mm
06:30 PM 45.9°F7.7°C 28.4°F-2.0°C 50% 2.7 mph NNW4.3 kmh NNW 5.4 mph8.7 kmh 30.03 in1016.9 mb 0.00 in0.0 mm 0.00 in0.0 mm 0.00 in0.0 mm
06:35 PM 45.9°F7.7°C 28.4°F-2.0°C 50% 2.7 mph NNW4.3 kmh NNW 4.9 mph7.9 kmh 30.06 in1017.9 mb 0.00 in0.0 mm 0.00 in0.0 mm 0.00 in0.0 mm
06:40 PM 45.9°F7.7°C 28.4°F-2.0°C 50% 2.0 mph NNW3.2 kmh NNW 4.3 mph6.9 kmh 30.06 in1017.9 mb 0.00 in0.0 mm 0.00 in0.0 mm 0.00 in0.0 mm
06:45 PM 45.9°F7.7°C 28.4°F-2.0°C 50% 2.7 mph NNW4.3 kmh NNW 4.7 mph7.6 kmh 30.06 in1017.9 mb 0.00 in0.0 mm 0.00 in0.0 mm 0.00 in0.0 mm
06:50 PM 45.9°F7.7°C 28.4°F-2.0°C 50% 2.2 mph NNW3.5 kmh NNW 4.7 mph7.6 kmh 30.06 in1017.9 mb 0.00 in0.0 mm 0.00 in0.0 mm 0.00 in0.0 mm
06:55 PM 45.9°F7.7°C 28.4°F-2.0°C 50% 2.2 mph NNW3.5 kmh NNW 3.8 mph6.1 kmh 30.06 in1017.9 mb 0.00 in0.0 mm 0.00 in0.0 mm 0.00 in0.0 mm
07:00 PM 45.9°F7.7°C 28.4°F-2.0°C 50% 2.2 mph NNW3.5 kmh NNW 3.8 mph6.1 kmh 30.06 in1017.9 mb 0.00 in0.0 mm 0.00 in0.0 mm 0.00 in0.0 mm
07:05 PM 45.9°F7.7°C 28.4°F-2.0°C 50% 2.0 mph NNW3.2 kmh NNW 2.9 mph4.7 kmh 30.06 in1017.9 mb 0.00 in0.0 mm 0.00 in0.0 mm 0.00 in0.0 mm
07:10 PM 45.9°F7.7°C 28.4°F-2.0°C 50% 0.9 mph NNW1.4 kmh NNW 2.9 mph4.7 kmh 30.06 in1017.9 mb 0.00 in0.0 mm 0.00 in0.0 mm 0.00 in0.0 mm
07:15 PM 45.9°F7.7°C 28.4°F-2.0°C 50% 1.3 mph NW2.1 kmh NW 2.7 mph4.3 kmh 30.06 in1017.9 mb 0.00 in0.0 mm 0.00 in0.0 mm 0.00 in0.0 mm
07:20 PM 45.9°F7.7°C 28.4°F-2.0°C 50% 2.0 mph NNW3.2 kmh NNW 2.9 mph4.7 kmh 30.06 in1017.9 mb 0.00 in0.0 mm 0.00 in0.0 mm 0.00 in0.0 mm
07:25 PM 45.9°F7.7°C 28.4°F-2.0°C 50% 1.1 mph NNW1.8 kmh NNW 2.9 mph4.7 kmh 30.06 in1017.9 mb 0.00 in0.0 mm 0.00 in0.0 mm 0.00 in0.0 mm
07:30 PM 45.9°F7.7°C 28.4°F-2.0°C 50% Calm Calm 2.0 mph3.2 kmh 30.06 in1017.9 mb 0.00 in0.0 mm 0.00 in0.0 mm 0.00 in0.0 mm
07:35 PM 45.9°F7.7°C 28.4°F-2.0°C 50% Calm Calm 1.3 mph2.1 kmh 30.03 in1016.9 mb 0.00 in0.0 mm 0.00 in0.0 mm 0.00 in0.0 mm
07:40 PM 45.9°F7.7°C 28.4°F-2.0°C 50% 0.9 mph WNW1.4 kmh WNW 2.0 mph3.2 kmh 30.03 in1016.9 mb 0.00 in0.0 mm 0.00 in0.0 mm 0.00 in0.0 mm
07:45 PM 45.9°F7.7°C 28.4°F-2.0°C 50% Calm Calm 2.0 mph3.2 kmh 30.03 in1016.9 mb 0.00 in0.0 mm 0.00 in0.0 mm 0.00 in0.0 mm
07:50 PM 45.9°F7.7°C 28.4°F-2.0°C 50% Calm Calm -- 30.06 in1017.9 mb 0.00 in0.0 mm 0.00 in0.0 mm 0.00 in0.0 mm
07:55 PM 45.9°F7.7°C 28.4°F-2.0°C 50% Calm Calm -- 30.06 in1017.9 mb 0.00 in0.0 mm 0.00 in0.0 mm 0.00 in0.0 mm
08:00 PM 45.9°F7.7°C 28.4°F-2.0°C 50% Calm Calm -- 30.06 in1017.9 mb 0.00 in0.0 mm 0.00 in0.0 mm 0.00 in0.0 mm
08:05 PM 45.9°F7.7°C 28.4°F-2.0°C 50% Calm Calm -- 30.09 in1019.0 mb 0.00 in0.0 mm 0.00 in0.0 mm 0.00 in0.0 mm
08:10 PM 45.9°F7.7°C 28.4°F-2.0°C 50% Calm Calm 1.1 mph1.8 kmh 30.09 in1019.0 mb 0.00 in0.0 mm 0.00 in0.0 mm 0.00 in0.0 mm
08:15 PM 45.9°F7.7°C 28.4°F-2.0°C 50% Calm Calm 1.1 mph1.8 kmh 30.09 in1019.0 mb 0.00 in0.0 mm 0.00 in0.0 mm 0.00 in0.0 mm
08:20 PM 45.9°F7.7°C 28.4°F-2.0°C 50% Calm Calm 1.3 mph2.1 kmh 30.03 in1016.9 mb 0.00 in0.0 mm 0.00 in0.0 mm 0.00 in0.0 mm
08:25 PM 45.9°F7.7°C 28.4°F-2.0°C 50% Calm Calm 1.3 mph2.1 kmh 30.03 in1016.9 mb 0.00 in0.0 mm 0.00 in0.0 mm 0.00 in0.0 mm
08:30 PM 45.9°F7.7°C 28.4°F-2.0°C 50% Calm Calm -- 30.03 in1016.9 mb 0.00 in0.0 mm 0.00 in0.0 mm 0.00 in0.0 mm
08:35 PM 45.9°F7.7°C 28.4°F-2.0°C 50% Calm Calm -- 30.06 in1017.9 mb 0.00 in0.0 mm 0.00 in0.0 mm 0.00 in0.0 mm
08:40 PM 45.9°F7.7°C 28.4°F-2.0°C 50% 1.3 mph WNW2.1 kmh WNW 1.6 mph2.6 kmh 30.06 in1017.9 mb 0.00 in0.0 mm 0.00 in0.0 mm 0.00 in0.0 mm
08:45 PM 45.9°F7.7°C 28.4°F-2.0°C 50% 0.9 mph WNW1.4 kmh WNW 1.6 mph2.6 kmh 30.06 in1017.9 mb 0.00 in0.0 mm 0.00 in0.0 mm 0.00 in0.0 mm
08:50 PM 45.9°F7.7°C 28.4°F-2.0°C 50% 1.1 mph WNW1.8 kmh WNW 1.6 mph2.6 kmh 30.06 in1017.9 mb 0.00 in0.0 mm 0.00 in0.0 mm 0.00 in0.0 mm
08:55 PM 45.9°F7.7°C 28.4°F-2.0°C 50% 1.3 mph WNW2.1 kmh WNW 1.6 mph2.6 kmh 30.06 in1017.9 mb 0.00 in0.0 mm 0.00 in0.0 mm 0.00 in0.0 mm
09:00 PM 45.9°F7.7°C 28.4°F-2.0°C 50% 1.1 mph WNW1.8 kmh WNW 1.6 mph2.6 kmh 30.06 in1017.9 mb 0.00 in0.0 mm 0.00 in0.0 mm 0.00 in0.0 mm
09:05 PM 45.9°F7.7°C 28.4°F-2.0°C 50% Calm Calm 1.3 mph2.1 kmh 30.06 in1017.9 mb 0.00 in0.0 mm 0.00 in0.0 mm 0.00 in0.0 mm
09:10 PM 45.9°F7.7°C 28.4°F-2.0°C 50% Calm Calm 1.1 mph1.8 kmh 30.06 in1017.9 mb 0.00 in0.0 mm 0.00 in0.0 mm 0.00 in0.0 mm
09:15 PM 45.9°F7.7°C 28.4°F-2.0°C 50% 1.1 mph WNW1.8 kmh WNW 1.6 mph2.6 kmh 30.06 in1017.9 mb 0.00 in0.0 mm 0.00 in0.0 mm 0.00 in0.0 mm
09:20 PM 45.9°F7.7°C 28.4°F-2.0°C 50% Calm Calm 1.6 mph2.6 kmh 30.06 in1017.9 mb 0.00 in0.0 mm 0.00 in0.0 mm 0.00 in0.0 mm
09:25 PM 45.9°F7.7°C 28.4°F-2.0°C 50% Calm Calm 1.6 mph2.6 kmh 30.06 in1017.9 mb 0.00 in0.0 mm 0.00 in0.0 mm 0.00 in0.0 mm
09:30 PM 45.9°F7.7°C 28.4°F-2.0°C 50% Calm Calm 0.9 mph1.4 kmh 30.06 in1017.9 mb 0.00 in0.0 mm 0.00 in0.0 mm 0.00 in0.0 mm
09:35 PM 45.9°F7.7°C 28.4°F-2.0°C 50% Calm Calm -- 30.06 in1017.9 mb 0.00 in0.0 mm 0.00 in0.0 mm 0.00 in0.0 mm
09:40 PM 45.9°F7.7°C 28.4°F-2.0°C 50% Calm Calm -- 30.06 in1017.9 mb 0.00 in0.0 mm 0.00 in0.0 mm 0.00 in0.0 mm
09:45 PM 45.9°F7.7°C 28.4°F-2.0°C 50% Calm Calm -- 30.06 in1017.9 mb 0.00 in0.0 mm 0.00 in0.0 mm 0.00 in0.0 mm
09:50 PM 45.9°F7.7°C 28.4°F-2.0°C 50% Calm Calm -- 30.09 in1019.0 mb 0.00 in0.0 mm 0.00 in0.0 mm 0.00 in0.0 mm
09:55 PM 45.9°F7.7°C 28.4°F-2.0°C 50% Calm Calm -- 30.09 in1019.0 mb 0.00 in0.0 mm 0.00 in0.0 mm 0.00 in0.0 mm
10:00 PM 45.9°F7.7°C 28.4°F-2.0°C 50% Calm Calm -- 30.09 in1019.0 mb 0.00 in0.0 mm 0.00 in0.0 mm 0.00 in0.0 mm
10:05 PM 45.9°F7.7°C 28.4°F-2.0°C 50% 1.1 mph WNW1.8 kmh WNW 1.3 mph2.1 kmh 30.09 in1019.0 mb 0.00 in0.0 mm 0.00 in0.0 mm 0.00 in0.0 mm
10:10 PM 45.9°F7.7°C 28.4°F-2.0°C 50% Calm Calm 1.6 mph2.6 kmh 30.09 in1019.0 mb 0.00 in0.0 mm 0.00 in0.0 mm 0.00 in0.0 mm
10:15 PM 45.9°F7.7°C 28.4°F-2.0°C 50% 1.6 mph SSW2.6 kmh SSW 2.5 mph4.0 kmh 30.09 in1019.0 mb 0.00 in0.0 mm 0.00 in0.0 mm 0.00 in0.0 mm
10:20 PM 45.9°F7.7°C 28.4°F-2.0°C 50% Calm Calm 2.5 mph4.0 kmh 30.09 in1019.0 mb 0.00 in0.0 mm 0.00 in0.0 mm 0.00 in0.0 mm
10:25 PM 45.9°F7.7°C 28.4°F-2.0°C 50% Calm Calm 2.5 mph4.0 kmh 30.09 in1019.0 mb 0.00 in0.0 mm 0.00 in0.0 mm 0.00 in0.0 mm
10:30 PM 45.9°F7.7°C 28.4°F-2.0°C 50% Calm Calm -- 30.09 in1019.0 mb 0.00 in0.0 mm 0.00 in0.0 mm 0.00 in0.0 mm
10:35 PM 45.9°F7.7°C 28.4°F-2.0°C 50% 2.0 mph SSW3.2 kmh SSW 2.5 mph4.0 kmh 30.09 in1019.0 mb 0.00 in0.0 mm 0.00 in0.0 mm 0.00 in0.0 mm
10:40 PM 45.9°F7.7°C 28.4°F-2.0°C 50% 1.1 mph SSW1.8 kmh SSW 2.5 mph4.0 kmh 30.09 in1019.0 mb 0.00 in0.0 mm 0.00 in0.0 mm 0.00 in0.0 mm
10:45 PM 45.9°F7.7°C 28.4°F-2.0°C 50% 1.6 mph SSW2.6 kmh SSW 2.0 mph3.2 kmh 30.09 in1019.0 mb 0.00 in0.0 mm 0.00 in0.0 mm 0.00 in0.0 mm
10:50 PM 45.9°F7.7°C 28.4°F-2.0°C 50% 1.6 mph SSW2.6 kmh SSW 2.7 mph4.3 kmh 30.09 in1019.0 mb 0.00 in0.0 mm 0.00 in0.0 mm 0.00 in0.0 mm
10:55 PM 45.9°F7.7°C 28.4°F-2.0°C 50% Calm Calm 2.7 mph4.3 kmh 30.09 in1019.0 mb 0.00 in0.0 mm 0.00 in0.0 mm 0.00 in0.0 mm
11:00 PM 45.9°F7.7°C 28.4°F-2.0°C 50% Calm Calm 1.6 mph2.6 kmh 30.09 in1019.0 mb 0.00 in0.0 mm 0.00 in0.0 mm 0.00 in0.0 mm
11:05 PM 45.9°F7.7°C 28.4°F-2.0°C 50% Calm Calm 1.6 mph2.6 kmh 30.06 in1017.9 mb 0.00 in0.0 mm 0.00 in0.0 mm 0.00 in0.0 mm
11:10 PM 45.9°F7.7°C 28.4°F-2.0°C 50% Calm Calm 1.6 mph2.6 kmh 30.06 in1017.9 mb 0.00 in0.0 mm 0.00 in0.0 mm 0.00 in0.0 mm
11:15 PM 45.9°F7.7°C 28.4°F-2.0°C 50% Calm Calm 1.6 mph2.6 kmh 30.06 in1017.9 mb 0.00 in0.0 mm 0.00 in0.0 mm 0.00 in0.0 mm
11:20 PM 45.9°F7.7°C 28.4°F-2.0°C 50% 0.9 mph S1.4 kmh S 2.9 mph4.7 kmh 30.06 in1017.9 mb 0.00 in0.0 mm 0.00 in0.0 mm 0.00 in0.0 mm
11:25 PM 45.9°F7.7°C 28.4°F-2.0°C 50% Calm Calm 2.9 mph4.7 kmh 30.06 in1017.9 mb 0.00 in0.0 mm 0.00 in0.0 mm 0.00 in0.0 mm
11:30 PM 45.9°F7.7°C 28.4°F-2.0°C 50% Calm Calm 1.3 mph2.1 kmh 30.06 in1017.9 mb 0.00 in0.0 mm 0.00 in0.0 mm 0.00 in0.0 mm
11:35 PM 45.9°F7.7°C 28.4°F-2.0°C 50% Calm Calm 1.3 mph2.1 kmh 30.06 in1017.9 mb 0.00 in0.0 mm 0.00 in0.0 mm 0.00 in0.0 mm
11:40 PM 45.9°F7.7°C 28.4°F-2.0°C 50% Calm Calm -- 30.06 in1017.9 mb 0.00 in0.0 mm 0.00 in0.0 mm 0.00 in0.0 mm
11:45 PM 45.9°F7.7°C 28.4°F-2.0°C 50% Calm Calm 1.3 mph2.1 kmh 30.06 in1017.9 mb 0.00 in0.0 mm 0.00 in0.0 mm 0.00 in0.0 mm
11:50 PM 45.9°F7.7°C 28.4°F-2.0°C 50% 1.1 mph SSE1.8 kmh SSE 2.0 mph3.2 kmh 30.06 in1017.9 mb 0.00 in0.0 mm 0.00 in0.0 mm 0.00 in0.0 mm
11:55 PM 45.9°F7.7°C 28.4°F-2.0°C 50% 1.1 mph SSE1.8 kmh SSE 2.0 mph3.2 kmh 30.06 in1017.9 mb 0.00 in0.0 mm 0.00 in0.0 mm 0.00 in0.0 mm